sensor_id;sensor_type;location;lat;lon;timestamp;temperature;humidity
9219;DHT22;4644;48.858;9.184;2023-06-14T00:01:07;16.00;70.50
9219;DHT22;4644;48.858;9.184;2023-06-14T00:03:35;15.90;71.30
9219;DHT22;4644;48.858;9.184;2023-06-14T00:06:02;15.90;67.20
9219;DHT22;4644;48.858;9.184;2023-06-14T00:08:29;16.00;65.70
9219;DHT22;4644;48.858;9.184;2023-06-14T00:10:55;16.00;65.80
9219;DHT22;4644;48.858;9.184;2023-06-14T00:13:24;15.90;67.60
9219;DHT22;4644;48.858;9.184;2023-06-14T00:15:51;16.10;65.90
9219;DHT22;4644;48.858;9.184;2023-06-14T00:18:20;16.10;68.00
9219;DHT22;4644;48.858;9.184;2023-06-14T00:20:50;15.90;68.60
9219;DHT22;4644;48.858;9.184;2023-06-14T00:23:18;15.90;67.20
9219;DHT22;4644;48.858;9.184;2023-06-14T00:25:45;15.80;71.70
9219;DHT22;4644;48.858;9.184;2023-06-14T00:28:12;15.70;70.90
9219;DHT22;4644;48.858;9.184;2023-06-14T00:30:40;15.70;72.00
9219;DHT22;4644;48.858;9.184;2023-06-14T00:33:07;15.60;72.80
9219;DHT22;4644;48.858;9.184;2023-06-14T00:35:34;15.50;70.10
9219;DHT22;4644;48.858;9.184;2023-06-14T00:38:01;15.50;70.30
9219;DHT22;4644;48.858;9.184;2023-06-14T00:40:30;15.50;72.20
9219;DHT22;4644;48.858;9.184;2023-06-14T00:42:57;15.50;70.70
9219;DHT22;4644;48.858;9.184;2023-06-14T00:45:24;15.50;71.00
9219;DHT22;4644;48.858;9.184;2023-06-14T00:47:53;15.50;70.40
9219;DHT22;4644;48.858;9.184;2023-06-14T00:50:21;15.40;73.60
9219;DHT22;4644;48.858;9.184;2023-06-14T00:52:49;15.40;73.20
9219;DHT22;4644;48.858;9.184;2023-06-14T00:55:16;15.40;74.00
9219;DHT22;4644;48.858;9.184;2023-06-14T00:57:43;15.30;74.80
9219;DHT22;4644;48.858;9.184;2023-06-14T01:00:12;15.30;75.20
9219;DHT22;4644;48.858;9.184;2023-06-14T01:02:40;15.30;73.80
9219;DHT22;4644;48.858;9.184;2023-06-14T01:05:09;15.20;74.20
9219;DHT22;4644;48.858;9.184;2023-06-14T01:07:46;15.20;76.80
9219;DHT22;4644;48.858;9.184;2023-06-14T01:10:24;15.10;76.40
9219;DHT22;4644;48.858;9.184;2023-06-14T01:12:56;15.00;73.90
9219;DHT22;4644;48.858;9.184;2023-06-14T01:15:26;15.00;76.50
9219;DHT22;4644;48.858;9.184;2023-06-14T01:17:55;15.00;77.70
9219;DHT22;4644;48.858;9.184;2023-06-14T01:20:28;14.90;76.70
9219;DHT22;4644;48.858;9.184;2023-06-14T01:22:58;14.90;74.80
9219;DHT22;4644;48.858;9.184;2023-06-14T01:25:25;14.80;77.10
9219;DHT22;4644;48.858;9.184;2023-06-14T01:27:57;14.80;77.50
9219;DHT22;4644;48.858;9.184;2023-06-14T01:30:25;14.80;77.20
9219;DHT22;4644;48.858;9.184;2023-06-14T01:32:54;14.80;77.60
9219;DHT22;4644;48.858;9.184;2023-06-14T01:35:22;14.80;77.00
9219;DHT22;4644;48.858;9.184;2023-06-14T01:37:50;14.70;78.20
9219;DHT22;4644;48.858;9.184;2023-06-14T01:40:19;14.70;78.60
9219;DHT22;4644;48.858;9.184;2023-06-14T01:42:49;14.70;79.30
9219;DHT22;4644;48.858;9.184;2023-06-14T01:45:17;14.70;78.90
9219;DHT22;4644;48.858;9.184;2023-06-14T01:47:45;14.70;79.30
9219;DHT22;4644;48.858;9.184;2023-06-14T01:50:13;14.60;80.20
9219;DHT22;4644;48.858;9.184;2023-06-14T01:52:40;14.60;80.90
9219;DHT22;4644;48.858;9.184;2023-06-14T01:55:07;14.50;80.10
9219;DHT22;4644;48.858;9.184;2023-06-14T01:57:36;14.50;80.10
9219;DHT22;4644;48.858;9.184;2023-06-14T02:00:03;14.50;80.20
9219;DHT22;4644;48.858;9.184;2023-06-14T02:02:31;14.40;81.50
9219;DHT22;4644;48.858;9.184;2023-06-14T02:04:58;14.40;80.90
9219;DHT22;4644;48.858;9.184;2023-06-14T02:07:25;14.40;81.00
9219;DHT22;4644;48.858;9.184;2023-06-14T02:09:52;14.30;80.40
9219;DHT22;4644;48.858;9.184;2023-06-14T02:12:19;14.30;80.70
9219;DHT22;4644;48.858;9.184;2023-06-14T02:14:47;14.30;81.90
9219;DHT22;4644;48.858;9.184;2023-06-14T02:17:15;14.30;82.70
9219;DHT22;4644;48.858;9.184;2023-06-14T02:19:42;14.20;82.60
9219;DHT22;4644;48.858;9.184;2023-06-14T02:22:09;14.20;83.20
9219;DHT22;4644;48.858;9.184;2023-06-14T02:24:36;14.20;83.20
9219;DHT22;4644;48.858;9.184;2023-06-14T02:27:04;14.20;83.00
9219;DHT22;4644;48.858;9.184;2023-06-14T02:29:32;14.10;83.40
9219;DHT22;4644;48.858;9.184;2023-06-14T02:32:00;14.10;83.50
9219;DHT22;4644;48.858;9.184;2023-06-14T02:34:27;14.10;83.10
9219;DHT22;4644;48.858;9.184;2023-06-14T02:36:54;14.00;82.80
9219;DHT22;4644;48.858;9.184;2023-06-14T02:39:21;14.00;81.00
9219;DHT22;4644;48.858;9.184;2023-06-14T02:41:48;14.00;83.00
9219;DHT22;4644;48.858;9.184;2023-06-14T02:44:18;14.00;83.50
9219;DHT22;4644;48.858;9.184;2023-06-14T02:46:45;14.00;83.40
9219;DHT22;4644;48.858;9.184;2023-06-14T02:49:13;13.90;81.90
9219;DHT22;4644;48.858;9.184;2023-06-14T02:51:40;13.90;82.50
9219;DHT22;4644;48.858;9.184;2023-06-14T02:54:07;13.90;85.10
9219;DHT22;4644;48.858;9.184;2023-06-14T02:56:34;13.90;80.60
9219;DHT22;4644;48.858;9.184;2023-06-14T02:59:01;13.80;81.70
9219;DHT22;4644;48.858;9.184;2023-06-14T03:01:28;13.90;82.20
9219;DHT22;4644;48.858;9.184;2023-06-14T03:04:00;13.90;81.50
9219;DHT22;4644;48.858;9.184;2023-06-14T03:06:28;13.90;82.30
9219;DHT22;4644;48.858;9.184;2023-06-14T03:08:56;13.90;83.10
9219;DHT22;4644;48.858;9.184;2023-06-14T03:11:26;13.80;82.70
9219;DHT22;4644;48.858;9.184;2023-06-14T03:13:53;13.80;82.10
9219;DHT22;4644;48.858;9.184;2023-06-14T03:16:22;13.80;83.10
9219;DHT22;4644;48.858;9.184;2023-06-14T03:18:51;13.80;82.80
9219;DHT22;4644;48.858;9.184;2023-06-14T03:21:18;13.80;81.50
9219;DHT22;4644;48.858;9.184;2023-06-14T03:23:47;13.70;83.10
9219;DHT22;4644;48.858;9.184;2023-06-14T03:26:14;13.70;83.10
9219;DHT22;4644;48.858;9.184;2023-06-14T03:28:43;13.70;83.70
9219;DHT22;4644;48.858;9.184;2023-06-14T03:31:10;13.70;85.50
9219;DHT22;4644;48.858;9.184;2023-06-14T03:33:37;13.70;83.90
9219;DHT22;4644;48.858;9.184;2023-06-14T03:36:05;13.70;84.30
9219;DHT22;4644;48.858;9.184;2023-06-14T03:38:33;13.70;85.10
9219;DHT22;4644;48.858;9.184;2023-06-14T03:41:01;13.70;85.30
9219;DHT22;4644;48.858;9.184;2023-06-14T03:43:28;13.70;85.80
9219;DHT22;4644;48.858;9.184;2023-06-14T03:45:55;13.60;85.60
9219;DHT22;4644;48.858;9.184;2023-06-14T03:48:22;13.60;84.80
9219;DHT22;4644;48.858;9.184;2023-06-14T03:50:49;13.50;87.10
9219;DHT22;4644;48.858;9.184;2023-06-14T03:53:16;13.50;83.50
9219;DHT22;4644;48.858;9.184;2023-06-14T03:55:46;13.50;84.30
9219;DHT22;4644;48.858;9.184;2023-06-14T03:58:15;13.50;85.30
9219;DHT22;4644;48.858;9.184;2023-06-14T04:00:42;13.50;86.00
9219;DHT22;4644;48.858;9.184;2023-06-14T04:03:09;13.60;84.70
9219;DHT22;4644;48.858;9.184;2023-06-14T04:05:36;13.50;84.20
9219;DHT22;4644;48.858;9.184;2023-06-14T04:08:03;13.50;83.20
9219;DHT22;4644;48.858;9.184;2023-06-14T04:10:34;13.50;83.60
9219;DHT22;4644;48.858;9.184;2023-06-14T04:13:01;13.50;82.90
9219;DHT22;4644;48.858;9.184;2023-06-14T04:15:30;13.50;82.80
9219;DHT22;4644;48.858;9.184;2023-06-14T04:17:57;13.50;82.70
9219;DHT22;4644;48.858;9.184;2023-06-14T04:20:24;13.60;82.80
9219;DHT22;4644;48.858;9.184;2023-06-14T04:22:52;13.60;82.80
9219;DHT22;4644;48.858;9.184;2023-06-14T04:25:19;13.70;82.70
9219;DHT22;4644;48.858;9.184;2023-06-14T04:27:46;13.70;82.70
9219;DHT22;4644;48.858;9.184;2023-06-14T04:30:13;13.80;82.50
9219;DHT22;4644;48.858;9.184;2023-06-14T04:32:42;13.90;82.20
9219;DHT22;4644;48.858;9.184;2023-06-14T04:35:09;13.90;82.20
9219;DHT22;4644;48.858;9.184;2023-06-14T04:37:36;14.00;82.30
9219;DHT22;4644;48.858;9.184;2023-06-14T04:40:10;14.10;82.20
9219;DHT22;4644;48.858;9.184;2023-06-14T04:42:37;14.30;84.90
9219;DHT22;4644;48.858;9.184;2023-06-14T04:45:07;14.30;82.70
9219;DHT22;4644;48.858;9.184;2023-06-14T04:47:35;14.50;81.40
9219;DHT22;4644;48.858;9.184;2023-06-14T04:50:05;14.60;84.80
9219;DHT22;4644;48.858;9.184;2023-06-14T04:52:32;14.70;83.50
9219;DHT22;4644;48.858;9.184;2023-06-14T04:55:01;14.90;83.30
9219;DHT22;4644;48.858;9.184;2023-06-14T04:57:28;15.00;82.40
9219;DHT22;4644;48.858;9.184;2023-06-14T04:59:57;15.30;85.10
9219;DHT22;4644;48.858;9.184;2023-06-14T05:02:26;15.60;86.40
9219;DHT22;4644;48.858;9.184;2023-06-14T05:04:54;15.80;85.10
9219;DHT22;4644;48.858;9.184;2023-06-14T05:07:23;16.10;80.00
9219;DHT22;4644;48.858;9.184;2023-06-14T05:09:51;16.30;79.30
9219;DHT22;4644;48.858;9.184;2023-06-14T05:12:17;16.60;78.20
9219;DHT22;4644;48.858;9.184;2023-06-14T05:14:45;16.80;76.70
9219;DHT22;4644;48.858;9.184;2023-06-14T05:17:12;17.00;76.10
9219;DHT22;4644;48.858;9.184;2023-06-14T05:19:38;17.40;76.80
9219;DHT22;4644;48.858;9.184;2023-06-14T05:22:06;17.50;73.50
9219;DHT22;4644;48.858;9.184;2023-06-14T05:24:35;17.80;73.90
9219;DHT22;4644;48.858;9.184;2023-06-14T05:27:02;18.10;72.80
9219;DHT22;4644;48.858;9.184;2023-06-14T05:29:29;18.20;72.60
9219;DHT22;4644;48.858;9.184;2023-06-14T05:31:55;18.50;71.70
9219;DHT22;4644;48.858;9.184;2023-06-14T05:34:22;18.50;68.00
9219;DHT22;4644;48.858;9.184;2023-06-14T05:36:49;18.40;67.90
9219;DHT22;4644;48.858;9.184;2023-06-14T05:39:16;18.20;67.40
9219;DHT22;4644;48.858;9.184;2023-06-14T05:41:45;18.10;67.50
9219;DHT22;4644;48.858;9.184;2023-06-14T05:44:12;18.40;72.00
9219;DHT22;4644;48.858;9.184;2023-06-14T05:46:38;18.70;77.70
9219;DHT22;4644;48.858;9.184;2023-06-14T05:49:06;19.00;68.30
9219;DHT22;4644;48.858;9.184;2023-06-14T05:51:33;19.20;72.00
9219;DHT22;4644;48.858;9.184;2023-06-14T05:54:00;19.10;69.20
9219;DHT22;4644;48.858;9.184;2023-06-14T05:56:27;19.40;74.40
9219;DHT22;4644;48.858;9.184;2023-06-14T05:58:56;19.50;71.00
9219;DHT22;4644;48.858;9.184;2023-06-14T06:01:23;19.70;69.50
9219;DHT22;4644;48.858;9.184;2023-06-14T06:03:50;19.90;64.00
9219;DHT22;4644;48.858;9.184;2023-06-14T06:06:17;20.10;65.60
9219;DHT22;4644;48.858;9.184;2023-06-14T06:08:44;20.30;65.80
9219;DHT22;4644;48.858;9.184;2023-06-14T06:11:12;20.60;63.10
9219;DHT22;4644;48.858;9.184;2023-06-14T06:13:38;20.70;61.00
9219;DHT22;4644;48.858;9.184;2023-06-14T06:16:07;20.70;60.20
9219;DHT22;4644;48.858;9.184;2023-06-14T06:18:34;20.50;60.30
9219;DHT22;4644;48.858;9.184;2023-06-14T06:21:03;20.80;62.70
9219;DHT22;4644;48.858;9.184;2023-06-14T06:23:30;20.80;62.10
9219;DHT22;4644;48.858;9.184;2023-06-14T06:25:57;21.10;62.50
9219;DHT22;4644;48.858;9.184;2023-06-14T06:28:24;21.30;64.10
9219;DHT22;4644;48.858;9.184;2023-06-14T06:30:51;21.50;60.20
9219;DHT22;4644;48.858;9.184;2023-06-14T06:33:20;21.60;58.00
9219;DHT22;4644;48.858;9.184;2023-06-14T06:35:47;21.60;62.60
9219;DHT22;4644;48.858;9.184;2023-06-14T06:38:14;21.70;59.00
9219;DHT22;4644;48.858;9.184;2023-06-14T06:40:41;21.80;57.70
9219;DHT22;4644;48.858;9.184;2023-06-14T06:43:08;21.90;58.10
9219;DHT22;4644;48.858;9.184;2023-06-14T06:45:39;22.30;58.10
9219;DHT22;4644;48.858;9.184;2023-06-14T06:48:10;22.50;57.60
9219;DHT22;4644;48.858;9.184;2023-06-14T06:50:39;22.40;55.70
9219;DHT22;4644;48.858;9.184;2023-06-14T06:53:06;21.90;59.40
9219;DHT22;4644;48.858;9.184;2023-06-14T06:55:33;21.70;58.00
9219;DHT22;4644;48.858;9.184;2023-06-14T06:58:00;21.20;58.40
9219;DHT22;4644;48.858;9.184;2023-06-14T07:00:27;21.20;59.10
9219;DHT22;4644;48.858;9.184;2023-06-14T07:02:53;21.50;60.20
9219;DHT22;4644;48.858;9.184;2023-06-14T07:05:20;21.90;60.50
9219;DHT22;4644;48.858;9.184;2023-06-14T07:07:49;22.30;59.80
9219;DHT22;4644;48.858;9.184;2023-06-14T07:10:15;22.60;60.20
9219;DHT22;4644;48.858;9.184;2023-06-14T07:12:42;22.90;56.40
9219;DHT22;4644;48.858;9.184;2023-06-14T07:15:10;22.90;59.00
9219;DHT22;4644;48.858;9.184;2023-06-14T07:17:37;23.10;57.80
9219;DHT22;4644;48.858;9.184;2023-06-14T07:20:05;23.30;57.20
9219;DHT22;4644;48.858;9.184;2023-06-14T07:22:37;23.00;55.20
9219;DHT22;4644;48.858;9.184;2023-06-14T07:25:08;22.40;57.50
9219;DHT22;4644;48.858;9.184;2023-06-14T07:27:35;22.20;57.80
9219;DHT22;4644;48.858;9.184;2023-06-14T07:30:02;22.10;56.60
9219;DHT22;4644;48.858;9.184;2023-06-14T07:32:29;21.90;58.00
9219;DHT22;4644;48.858;9.184;2023-06-14T07:34:56;21.80;58.70
9219;DHT22;4644;48.858;9.184;2023-06-14T07:37:23;21.70;59.10
9219;DHT22;4644;48.858;9.184;2023-06-14T07:39:50;21.70;62.10
9219;DHT22;4644;48.858;9.184;2023-06-14T07:42:18;22.40;59.50
9219;DHT22;4644;48.858;9.184;2023-06-14T07:44:46;22.60;57.90
9219;DHT22;4644;48.858;9.184;2023-06-14T07:47:13;22.20;59.00
9219;DHT22;4644;48.858;9.184;2023-06-14T07:49:40;22.00;63.60
9219;DHT22;4644;48.858;9.184;2023-06-14T07:52:07;22.20;59.10
9219;DHT22;4644;48.858;9.184;2023-06-14T07:54:34;22.40;62.40
9219;DHT22;4644;48.858;9.184;2023-06-14T07:57:01;22.70;59.90
9219;DHT22;4644;48.858;9.184;2023-06-14T07:59:29;23.10;56.40
9219;DHT22;4644;48.858;9.184;2023-06-14T08:01:56;23.40;57.70
9219;DHT22;4644;48.858;9.184;2023-06-14T08:04:23;23.70;59.10
9219;DHT22;4644;48.858;9.184;2023-06-14T08:06:50;24.00;56.00
9219;DHT22;4644;48.858;9.184;2023-06-14T08:09:17;24.50;57.50
9219;DHT22;4644;48.858;9.184;2023-06-14T08:11:44;24.60;55.80
9219;DHT22;4644;48.858;9.184;2023-06-14T08:14:11;24.90;57.30
9219;DHT22;4644;48.858;9.184;2023-06-14T08:16:40;25.10;54.30
9219;DHT22;4644;48.858;9.184;2023-06-14T08:19:08;24.80;53.00
9219;DHT22;4644;48.858;9.184;2023-06-14T08:21:34;24.80;55.10
9219;DHT22;4644;48.858;9.184;2023-06-14T08:24:02;24.90;55.10
9219;DHT22;4644;48.858;9.184;2023-06-14T08:26:29;25.00;54.20
9219;DHT22;4644;48.858;9.184;2023-06-14T08:28:57;25.00;55.30
9219;DHT22;4644;48.858;9.184;2023-06-14T08:31:24;25.30;53.30
9219;DHT22;4644;48.858;9.184;2023-06-14T08:33:54;25.20;55.30
9219;DHT22;4644;48.858;9.184;2023-06-14T08:36:21;25.20;52.80
9219;DHT22;4644;48.858;9.184;2023-06-14T08:38:48;25.00;53.00
9219;DHT22;4644;48.858;9.184;2023-06-14T08:41:21;25.00;56.00
9219;DHT22;4644;48.858;9.184;2023-06-14T08:43:49;25.10;53.40
9219;DHT22;4644;48.858;9.184;2023-06-14T08:46:17;25.20;54.90
9219;DHT22;4644;48.858;9.184;2023-06-14T08:48:47;25.30;54.80
9219;DHT22;4644;48.858;9.184;2023-06-14T08:51:19;25.60;53.80
9219;DHT22;4644;48.858;9.184;2023-06-14T08:53:52;25.20;52.90
9219;DHT22;4644;48.858;9.184;2023-06-14T08:56:20;24.90;54.10
9219;DHT22;4644;48.858;9.184;2023-06-14T08:58:48;24.80;53.70
9219;DHT22;4644;48.858;9.184;2023-06-14T09:01:15;25.00;53.70
9219;DHT22;4644;48.858;9.184;2023-06-14T09:03:43;24.90;53.90
9219;DHT22;4644;48.858;9.184;2023-06-14T09:06:11;25.00;52.90
9219;DHT22;4644;48.858;9.184;2023-06-14T09:08:43;25.00;53.70
9219;DHT22;4644;48.858;9.184;2023-06-14T09:11:11;25.20;53.70
9219;DHT22;4644;48.858;9.184;2023-06-14T09:13:38;25.50;53.90
9219;DHT22;4644;48.858;9.184;2023-06-14T09:16:06;25.70;54.30
9219;DHT22;4644;48.858;9.184;2023-06-14T09:18:35;26.00;53.80
9219;DHT22;4644;48.858;9.184;2023-06-14T09:21:06;26.00;55.00
9219;DHT22;4644;48.858;9.184;2023-06-14T09:23:36;26.00;52.20
9219;DHT22;4644;48.858;9.184;2023-06-14T09:26:08;26.00;51.60
9219;DHT22;4644;48.858;9.184;2023-06-14T09:28:35;25.40;52.50
9219;DHT22;4644;48.858;9.184;2023-06-14T09:31:02;25.30;52.00
9219;DHT22;4644;48.858;9.184;2023-06-14T09:33:31;25.70;54.20
9219;DHT22;4644;48.858;9.184;2023-06-14T09:35:58;26.00;54.40
9219;DHT22;4644;48.858;9.184;2023-06-14T09:38:25;26.30;52.90
9219;DHT22;4644;48.858;9.184;2023-06-14T09:40:55;26.30;50.70
9219;DHT22;4644;48.858;9.184;2023-06-14T09:43:24;26.60;52.20
9219;DHT22;4644;48.858;9.184;2023-06-14T09:45:54;26.70;50.40
9219;DHT22;4644;48.858;9.184;2023-06-14T09:48:21;26.90;51.30
9219;DHT22;4644;48.858;9.184;2023-06-14T09:50:50;27.10;49.60
9219;DHT22;4644;48.858;9.184;2023-06-14T09:53:19;26.70;50.30
9219;DHT22;4644;48.858;9.184;2023-06-14T09:55:49;26.60;50.30
9219;DHT22;4644;48.858;9.184;2023-06-14T09:58:19;26.60;51.50
9219;DHT22;4644;48.858;9.184;2023-06-14T10:00:50;26.40;49.50
9219;DHT22;4644;48.858;9.184;2023-06-14T10:03:24;25.80;52.10
9219;DHT22;4644;48.858;9.184;2023-06-14T10:05:52;25.70;50.90
9219;DHT22;4644;48.858;9.184;2023-06-14T10:08:24;26.00;55.10
9219;DHT22;4644;48.858;9.184;2023-06-14T10:10:53;26.50;49.70
9219;DHT22;4644;48.858;9.184;2023-06-14T10:13:20;27.10;49.00
9219;DHT22;4644;48.858;9.184;2023-06-14T10:15:54;27.60;47.90
9219;DHT22;4644;48.858;9.184;2023-06-14T10:18:31;27.80;44.70
9219;DHT22;4644;48.858;9.184;2023-06-14T10:21:06;27.90;46.20
9219;DHT22;4644;48.858;9.184;2023-06-14T10:23:38;27.30;46.70
9219;DHT22;4644;48.858;9.184;2023-06-14T10:26:06;26.90;47.30
9219;DHT22;4644;48.858;9.184;2023-06-14T10:28:37;26.40;47.50
9219;DHT22;4644;48.858;9.184;2023-06-14T10:31:07;25.90;47.40
9219;DHT22;4644;48.858;9.184;2023-06-14T10:33:36;25.60;49.70
9219;DHT22;4644;48.858;9.184;2023-06-14T10:36:26;25.40;48.40
9219;DHT22;4644;48.858;9.184;2023-06-14T10:38:57;25.20;48.50
9219;DHT22;4644;48.858;9.184;2023-06-14T10:41:26;25.40;47.60
9219;DHT22;4644;48.858;9.184;2023-06-14T10:46:58;26.10;45.60
9219;DHT22;4644;48.858;9.184;2023-06-14T10:49:40;26.20;44.60
9219;DHT22;4644;48.858;9.184;2023-06-14T10:52:09;26.40;43.90
9219;DHT22;4644;48.858;9.184;2023-06-14T10:57:39;26.80;46.70
9219;DHT22;4644;48.858;9.184;2023-06-14T11:00:08;27.60;44.90
9219;DHT22;4644;48.858;9.184;2023-06-14T11:05:59;28.40;43.70
9219;DHT22;4644;48.858;9.184;2023-06-14T11:09:06;28.30;41.80
9219;DHT22;4644;48.858;9.184;2023-06-14T11:11:41;27.60;41.00
9219;DHT22;4644;48.858;9.184;2023-06-14T11:14:10;27.40;45.30
9219;DHT22;4644;48.858;9.184;2023-06-14T11:16:37;27.20;42.40
9219;DHT22;4644;48.858;9.184;2023-06-14T11:19:06;27.20;41.90
9219;DHT22;4644;48.858;9.184;2023-06-14T11:21:33;27.30;43.20
9219;DHT22;4644;48.858;9.184;2023-06-14T11:24:01;27.80;41.90
9219;DHT22;4644;48.858;9.184;2023-06-14T11:26:28;28.30;41.40
9219;DHT22;4644;48.858;9.184;2023-06-14T11:28:56;28.30;40.80
9219;DHT22;4644;48.858;9.184;2023-06-14T11:31:24;28.10;40.20
9219;DHT22;4644;48.858;9.184;2023-06-14T11:33:53;27.90;41.10
9219;DHT22;4644;48.858;9.184;2023-06-14T11:36:22;27.90;40.70
9219;DHT22;4644;48.858;9.184;2023-06-14T11:38:49;28.20;40.10
9219;DHT22;4644;48.858;9.184;2023-06-14T11:41:17;28.30;39.40
9219;DHT22;4644;48.858;9.184;2023-06-14T11:43:44;27.80;39.80
9219;DHT22;4644;48.858;9.184;2023-06-14T11:46:14;28.10;42.90
9219;DHT22;4644;48.858;9.184;2023-06-14T11:48:43;28.80;44.20
9219;DHT22;4644;48.858;9.184;2023-06-14T11:51:10;29.70;39.00
9219;DHT22;4644;48.858;9.184;2023-06-14T11:53:39;30.40;38.60
9219;DHT22;4644;48.858;9.184;2023-06-14T11:56:06;30.90;37.20
9219;DHT22;4644;48.858;9.184;2023-06-14T11:58:33;30.60;35.60
9219;DHT22;4644;48.858;9.184;2023-06-14T12:01:02;29.80;38.90
9219;DHT22;4644;48.858;9.184;2023-06-14T12:03:29;29.60;37.20
9219;DHT22;4644;48.858;9.184;2023-06-14T12:06:05;29.40;39.70
9219;DHT22;4644;48.858;9.184;2023-06-14T12:08:34;29.10;37.70
9219;DHT22;4644;48.858;9.184;2023-06-14T12:11:13;28.80;38.40
9219;DHT22;4644;48.858;9.184;2023-06-14T12:13:41;28.90;38.90
9219;DHT22;4644;48.858;9.184;2023-06-14T12:16:08;28.50;39.60
9219;DHT22;4644;48.858;9.184;2023-06-14T12:18:36;28.30;38.90
9219;DHT22;4644;48.858;9.184;2023-06-14T12:21:04;27.80;39.30
9219;DHT22;4644;48.858;9.184;2023-06-14T12:23:44;26.80;40.70
9219;DHT22;4644;48.858;9.184;2023-06-14T12:26:15;26.80;41.60
9219;DHT22;4644;48.858;9.184;2023-06-14T12:28:44;26.90;41.70
9219;DHT22;4644;48.858;9.184;2023-06-14T12:31:12;27.10;41.20
9219;DHT22;4644;48.858;9.184;2023-06-14T12:33:39;27.00;42.20
9219;DHT22;4644;48.858;9.184;2023-06-14T12:36:07;27.50;41.40
9219;DHT22;4644;48.858;9.184;2023-06-14T12:38:35;27.80;41.10
9219;DHT22;4644;48.858;9.184;2023-06-14T12:41:02;27.40;42.10
9219;DHT22;4644;48.858;9.184;2023-06-14T12:43:30;27.20;40.90
9219;DHT22;4644;48.858;9.184;2023-06-14T12:45:57;26.70;41.60
9219;DHT22;4644;48.858;9.184;2023-06-14T12:48:24;26.60;43.70
9219;DHT22;4644;48.858;9.184;2023-06-14T12:50:52;26.50;42.80
9219;DHT22;4644;48.858;9.184;2023-06-14T12:53:20;26.50;44.00
9219;DHT22;4644;48.858;9.184;2023-06-14T12:55:47;26.40;42.40
9219;DHT22;4644;48.858;9.184;2023-06-14T12:58:13;26.30;43.70
9219;DHT22;4644;48.858;9.184;2023-06-14T13:00:44;26.10;47.20
9219;DHT22;4644;48.858;9.184;2023-06-14T13:03:10;26.20;43.20
9219;DHT22;4644;48.858;9.184;2023-06-14T13:05:38;26.10;46.00
9219;DHT22;4644;48.858;9.184;2023-06-14T13:08:07;26.30;44.20
9219;DHT22;4644;48.858;9.184;2023-06-14T13:10:34;26.30;43.30
9219;DHT22;4644;48.858;9.184;2023-06-14T13:13:01;26.10;42.60
9219;DHT22;4644;48.858;9.184;2023-06-14T13:15:28;26.00;44.00
9219;DHT22;4644;48.858;9.184;2023-06-14T13:17:56;26.00;42.70
9219;DHT22;4644;48.858;9.184;2023-06-14T13:20:23;25.60;43.80
9219;DHT22;4644;48.858;9.184;2023-06-14T13:22:51;25.80;45.50
9219;DHT22;4644;48.858;9.184;2023-06-14T13:25:18;26.00;44.80
9219;DHT22;4644;48.858;9.184;2023-06-14T13:27:45;26.20;42.70
9219;DHT22;4644;48.858;9.184;2023-06-14T13:30:12;26.10;42.50
9219;DHT22;4644;48.858;9.184;2023-06-14T13:32:40;26.10;44.40
9219;DHT22;4644;48.858;9.184;2023-06-14T13:35:08;26.50;45.10
9219;DHT22;4644;48.858;9.184;2023-06-14T13:37:35;26.70;44.60
9219;DHT22;4644;48.858;9.184;2023-06-14T13:40:03;26.80;41.50
9219;DHT22;4644;48.858;9.184;2023-06-14T13:42:31;26.90;42.70
9219;DHT22;4644;48.858;9.184;2023-06-14T13:44:58;26.80;41.70
9219;DHT22;4644;48.858;9.184;2023-06-14T13:47:25;26.80;41.40
9219;DHT22;4644;48.858;9.184;2023-06-14T13:49:52;26.70;42.20
9219;DHT22;4644;48.858;9.184;2023-06-14T13:52:21;26.50;43.50
9219;DHT22;4644;48.858;9.184;2023-06-14T13:54:48;26.50;44.10
9219;DHT22;4644;48.858;9.184;2023-06-14T13:57:15;26.50;44.40
9219;DHT22;4644;48.858;9.184;2023-06-14T13:59:42;26.70;44.30
9219;DHT22;4644;48.858;9.184;2023-06-14T14:02:09;26.70;43.60
9219;DHT22;4644;48.858;9.184;2023-06-14T14:04:37;26.80;45.50
9219;DHT22;4644;48.858;9.184;2023-06-14T14:07:05;27.10;44.10
9219;DHT22;4644;48.858;9.184;2023-06-14T14:09:34;27.20;42.90
9219;DHT22;4644;48.858;9.184;2023-06-14T14:12:01;26.90;43.90
9219;DHT22;4644;48.858;9.184;2023-06-14T14:14:30;26.80;42.70
9219;DHT22;4644;48.858;9.184;2023-06-14T14:16:57;26.60;43.30
9219;DHT22;4644;48.858;9.184;2023-06-14T14:19:24;26.80;43.70
9219;DHT22;4644;48.858;9.184;2023-06-14T14:21:51;27.00;42.50
9219;DHT22;4644;48.858;9.184;2023-06-14T14:24:19;26.90;42.50
9219;DHT22;4644;48.858;9.184;2023-06-14T14:26:47;27.00;42.60
9219;DHT22;4644;48.858;9.184;2023-06-14T14:29:15;27.20;43.80
9219;DHT22;4644;48.858;9.184;2023-06-14T14:31:42;27.00;44.20
9219;DHT22;4644;48.858;9.184;2023-06-14T14:34:09;27.20;44.10
9219;DHT22;4644;48.858;9.184;2023-06-14T14:36:36;27.20;44.70
9219;DHT22;4644;48.858;9.184;2023-06-14T14:39:07;27.30;44.50
9219;DHT22;4644;48.858;9.184;2023-06-14T14:41:34;27.20;44.20
9219;DHT22;4644;48.858;9.184;2023-06-14T14:44:05;27.30;45.80
9219;DHT22;4644;48.858;9.184;2023-06-14T14:46:32;27.30;43.30
9219;DHT22;4644;48.858;9.184;2023-06-14T14:48:59;27.10;44.00
9219;DHT22;4644;48.858;9.184;2023-06-14T14:51:26;26.90;43.60
9219;DHT22;4644;48.858;9.184;2023-06-14T14:53:53;26.60;42.60
9219;DHT22;4644;48.858;9.184;2023-06-14T14:56:20;26.40;44.40
9219;DHT22;4644;48.858;9.184;2023-06-14T14:58:47;26.60;43.30
9219;DHT22;4644;48.858;9.184;2023-06-14T15:01:16;27.60;43.70
9219;DHT22;4644;48.858;9.184;2023-06-14T15:03:43;29.50;40.90
9219;DHT22;4644;48.858;9.184;2023-06-14T15:06:11;31.60;36.90
9219;DHT22;4644;48.858;9.184;2023-06-14T15:08:38;32.60;36.50
9219;DHT22;4644;48.858;9.184;2023-06-14T15:11:05;33.40;33.70
9219;DHT22;4644;48.858;9.184;2023-06-14T15:13:32;33.50;34.00
9219;DHT22;4644;48.858;9.184;2023-06-14T15:15:59;32.50;33.60
9219;DHT22;4644;48.858;9.184;2023-06-14T15:18:27;31.20;35.20
9219;DHT22;4644;48.858;9.184;2023-06-14T15:20:54;29.50;37.50
9219;DHT22;4644;48.858;9.184;2023-06-14T15:23:21;28.10;39.70
9219;DHT22;4644;48.858;9.184;2023-06-14T15:25:48;27.50;41.70
9219;DHT22;4644;48.858;9.184;2023-06-14T15:28:17;27.00;41.80
9219;DHT22;4644;48.858;9.184;2023-06-14T15:30:44;26.50;42.20
9219;DHT22;4644;48.858;9.184;2023-06-14T15:33:11;26.40;42.70
9219;DHT22;4644;48.858;9.184;2023-06-14T15:35:40;26.20;44.10
9219;DHT22;4644;48.858;9.184;2023-06-14T15:38:07;26.70;43.80
9219;DHT22;4644;48.858;9.184;2023-06-14T15:40:34;27.60;42.60
9219;DHT22;4644;48.858;9.184;2023-06-14T15:43:00;28.80;40.10
9219;DHT22;4644;48.858;9.184;2023-06-14T15:45:29;30.00;37.80
9219;DHT22;4644;48.858;9.184;2023-06-14T15:47:57;31.50;36.10
9219;DHT22;4644;48.858;9.184;2023-06-14T15:50:25;33.10;36.10
9219;DHT22;4644;48.858;9.184;2023-06-14T15:52:54;34.70;34.50
9219;DHT22;4644;48.858;9.184;2023-06-14T15:55:21;36.30;30.70
9219;DHT22;4644;48.858;9.184;2023-06-14T15:57:48;35.90;29.80
9219;DHT22;4644;48.858;9.184;2023-06-14T16:00:15;34.50;30.40
9219;DHT22;4644;48.858;9.184;2023-06-14T16:02:43;33.50;33.50
9219;DHT22;4644;48.858;9.184;2023-06-14T16:05:09;33.50;32.10
9219;DHT22;4644;48.858;9.184;2023-06-14T16:07:36;35.00;32.70
9219;DHT22;4644;48.858;9.184;2023-06-14T16:10:06;36.60;31.30
9219;DHT22;4644;48.858;9.184;2023-06-14T16:12:33;37.30;29.10
9219;DHT22;4644;48.858;9.184;2023-06-14T16:15:00;38.10;28.90
9219;DHT22;4644;48.858;9.184;2023-06-14T16:17:27;38.40;28.20